Time;durP1;ratioP1;P1;durP2;ratioP2;P2;SDS_P1;SDS_P2;PMS_P1;PMS_P2;Temp;Humidity;BMP_temperature;BMP_pressure;BME280_temperature;BME280_humidity;BME280_pressure;Samples;Min_cycle;Max_cycle;Signal;HPM_P1;HPM_P2
2024/01/26 00:01:30;;;;;;;;;;;8.90;99.90;;;;;;4941863;28;19936;-68
2024/01/26 00:03:57;;;;;;;;;;;8.90;99.90;;;;;;4966219;28;19925;-67
2024/01/26 00:06:23;;;;;;;;;;;8.90;99.90;;;;;;4927367;28;20972;-67
2024/01/26 00:08:49;;;;;;;;;;;8.90;99.90;;;;;;4961380;28;19932;-68
2024/01/26 00:11:17;;;;;;;;;;;8.90;99.90;;;;;;4937884;28;19925;-67
2024/01/26 00:13:43;;;;;;;;;;;8.90;99.90;;;;;;4961952;28;19929;-68
2024/01/26 00:16:09;;;;;;;;;;;8.90;99.90;;;;;;4935776;28;19940;-68
2024/01/26 00:18:35;;;;;;;;;;;9.00;99.90;;;;;;4978336;28;19925;-67
2024/01/26 00:21:01;;;;;;;;;;;9.00;99.90;;;;;;4932519;28;19941;-67
2024/01/26 00:23:28;;;;;;;;;;;9.10;99.90;;;;;;4945238;28;19944;-67
2024/01/26 00:25:54;;;;;;;;;;;9.00;99.90;;;;;;4934150;28;19927;-67
2024/01/26 00:28:20;;;;;;;;;;;9.10;99.90;;;;;;4957005;28;20480;-67
2024/01/26 00:30:46;;;;;;;;;;;9.10;99.90;;;;;;4935166;28;19925;-67
2024/01/26 00:33:12;;;;;;;;;;;9.10;99.90;;;;;;4980924;28;19925;-67
2024/01/26 00:35:38;;;;;;;;;;;9.10;99.90;;;;;;4933229;28;19936;-67
2024/01/26 00:38:04;;;;;;;;;;;9.20;99.90;;;;;;4966896;28;19929;-67
2024/01/26 00:40:30;;;;;;;;;;;9.10;99.90;;;;;;4974400;28;19925;-66
2024/01/26 00:42:56;;;;;;;;;;;9.10;99.90;;;;;;4944058;28;19959;-67
2024/01/26 00:45:23;;;;;;;;;;;9.10;99.90;;;;;;4958787;28;19948;-67
2024/01/26 00:47:48;;;;;;;;;;;9.20;99.90;;;;;;4927328;28;19952;-69
2024/01/26 00:50:14;;;;;;;;;;;9.20;99.90;;;;;;4961354;28;20033;-68
2024/01/26 00:52:40;;;;;;;;;;;9.20;99.90;;;;;;4934455;28;20479;-67
2024/01/26 00:55:06;;;;;;;;;;;9.30;99.90;;;;;;4959873;28;19929;-67
2024/01/26 00:57:32;;;;;;;;;;;9.30;99.90;;;;;;4953622;28;19936;-67
2024/01/26 01:00:07;;;;;;;;;;;9.30;99.90;;;;;;4943106;28;19925;-67
2024/01/26 01:02:33;;;;;;;;;;;9.30;99.90;;;;;;4953750;28;19924;-67
2024/01/26 01:05:00;;;;;;;;;;;9.30;99.90;;;;;;4962009;28;19933;-68
2024/01/26 01:07:26;;;;;;;;;;;9.30;99.90;;;;;;4934144;28;19936;-67
2024/01/26 01:09:51;;;;;;;;;;;9.30;99.90;;;;;;4958703;28;19925;-68
2024/01/26 01:12:17;;;;;;;;;;;9.30;99.90;;;;;;4936784;28;19925;-67
2024/01/26 01:14:44;;;;;;;;;;;9.30;99.90;;;;;;4943547;28;19934;-67
2024/01/26 01:17:11;;;;;;;;;;;9.40;99.90;;;;;;4914839;28;20484;-66
2024/01/26 01:19:37;;;;;;;;;;;9.30;99.90;;;;;;4943440;28;19926;-67
2024/01/26 01:22:03;;;;;;;;;;;9.40;99.90;;;;;;4919883;28;19930;-67
2024/01/26 01:24:29;;;;;;;;;;;9.40;99.90;;;;;;4921831;28;20906;-67
2024/01/26 01:26:55;;;;;;;;;;;9.40;99.90;;;;;;4931235;28;19925;-67
2024/01/26 01:29:20;;;;;;;;;;;9.40;99.90;;;;;;4959198;28;19926;-66
2024/01/26 01:31:46;;;;;;;;;;;9.40;99.90;;;;;;4933575;28;19925;-67
2024/01/26 01:34:12;;;;;;;;;;;9.40;99.90;;;;;;4941385;28;19929;-67
2024/01/26 01:36:38;;;;;;;;;;;9.40;99.90;;;;;;4916875;28;19956;-67
2024/01/26 01:39:04;;;;;;;;;;;9.30;99.90;;;;;;4949484;28;20722;-68
2024/01/26 01:41:30;;;;;;;;;;;9.40;99.90;;;;;;4924616;28;19929;-67
2024/01/26 01:43:56;;;;;;;;;;;9.40;99.90;;;;;;4968321;28;21151;-67
2024/01/26 01:46:22;;;;;;;;;;;9.30;99.90;;;;;;4936305;28;21132;-67
2024/01/26 01:48:49;;;;;;;;;;;9.40;99.90;;;;;;4942393;28;19931;-69
2024/01/26 01:51:15;;;;;;;;;;;9.40;99.90;;;;;;4937433;28;19940;-66
2024/01/26 01:53:42;;;;;;;;;;;9.40;99.90;;;;;;4959975;28;19941;-67
2024/01/26 01:56:10;;;;;;;;;;;9.40;99.90;;;;;;4917618;28;19936;-67
2024/01/26 01:58:37;;;;;;;;;;;9.50;99.90;;;;;;4958699;28;20989;-67
2024/01/26 02:01:04;;;;;;;;;;;9.50;99.90;;;;;;4918318;28;19925;-67
2024/01/26 02:03:30;;;;;;;;;;;9.50;99.90;;;;;;4960635;28;19948;-67
2024/01/26 02:05:56;;;;;;;;;;;9.50;99.90;;;;;;4915630;28;20041;-67
2024/01/26 02:08:22;;;;;;;;;;;9.50;99.90;;;;;;4947597;28;19932;-67
2024/01/26 02:10:48;;;;;;;;;;;9.50;99.90;;;;;;4918040;28;19936;-67
2024/01/26 02:13:14;;;;;;;;;;;9.50;99.90;;;;;;4975642;28;19929;-67
2024/01/26 02:15:39;;;;;;;;;;;9.40;99.90;;;;;;4933069;28;19929;-67
2024/01/26 02:18:05;;;;;;;;;;;9.50;99.90;;;;;;4965512;28;20673;-66
2024/01/26 02:20:31;;;;;;;;;;;9.50;99.90;;;;;;4935899;28;19933;-67
2024/01/26 02:22:57;;;;;;;;;;;9.50;99.90;;;;;;4930289;28;19933;-66
2024/01/26 02:25:23;;;;;;;;;;;9.50;99.90;;;;;;4944090;28;20474;-66
2024/01/26 02:27:52;;;;;;;;;;;9.50;99.90;;;;;;4935997;28;20004;-67
2024/01/26 02:30:18;;;;;;;;;;;9.50;99.90;;;;;;4942825;28;19933;-67
2024/01/26 02:32:44;;;;;;;;;;;9.50;99.90;;;;;;4936327;28;20502;-67
2024/01/26 02:35:10;;;;;;;;;;;9.50;99.90;;;;;;4943543;28;19930;-67
2024/01/26 02:37:36;;;;;;;;;;;9.50;99.90;;;;;;4944572;28;20406;-67
2024/01/26 02:40:02;;;;;;;;;;;9.60;99.90;;;;;;4962188;28;19937;-67
2024/01/26 02:42:28;;;;;;;;;;;9.60;99.90;;;;;;4937481;28;19925;-68
2024/01/26 02:44:54;;;;;;;;;;;9.60;99.90;;;;;;4946079;28;19930;-67
2024/01/26 02:47:20;;;;;;;;;;;9.60;99.90;;;;;;4911033;28;19936;-67
2024/01/26 02:49:46;;;;;;;;;;;9.60;99.90;;;;;;4945463;28;19926;-67
2024/01/26 02:52:12;;;;;;;;;;;9.60;99.90;;;;;;4938614;28;20030;-67
2024/01/26 02:54:37;;;;;;;;;;;9.60;99.90;;;;;;4963808;28;19929;-66
2024/01/26 02:57:04;;;;;;;;;;;9.60;99.90;;;;;;4936879;28;19937;-68
2024/01/26 02:59:30;;;;;;;;;;;9.60;99.90;;;;;;4947789;28;19937;-67
2024/01/26 03:01:55;;;;;;;;;;;9.60;99.90;;;;;;4934823;28;19929;-67
2024/01/26 03:04:21;;;;;;;;;;;9.60;99.90;;;;;;4966600;28;21046;-67
2024/01/26 03:06:47;;;;;;;;;;;9.60;99.90;;;;;;4921010;28;19929;-66
2024/01/26 03:09:14;;;;;;;;;;;9.70;99.90;;;;;;4939771;28;19925;-67
2024/01/26 03:11:42;;;;;;;;;;;9.60;99.90;;;;;;4923299;28;19937;-67
2024/01/26 03:14:09;;;;;;;;;;;9.60;99.90;;;;;;4963174;28;19941;-69
2024/01/26 03:16:38;;;;;;;;;;;9.70;99.90;;;;;;4932606;28;20596;-67
2024/01/26 03:19:04;;;;;;;;;;;9.70;99.90;;;;;;4963082;28;20427;-67
2024/01/26 03:21:29;;;;;;;;;;;9.70;99.90;;;;;;4931471;28;19929;-67
2024/01/26 03:23:55;;;;;;;;;;;9.70;99.90;;;;;;4960438;28;20212;-66
2024/01/26 03:26:21;;;;;;;;;;;9.60;99.90;;;;;;4939135;28;19925;-66
2024/01/26 03:28:48;;;;;;;;;;;9.70;99.90;;;;;;4976315;28;20157;-67
2024/01/26 03:31:14;;;;;;;;;;;9.70;99.90;;;;;;4931415;28;19940;-68
2024/01/26 03:33:40;;;;;;;;;;;9.70;99.90;;;;;;4960802;28;19932;-68
2024/01/26 03:36:07;;;;;;;;;;;9.70;99.90;;;;;;4934633;28;19929;-66
2024/01/26 03:38:33;;;;;;;;;;;9.70;99.90;;;;;;4976472;28;19954;-68
2024/01/26 03:41:00;;;;;;;;;;;9.70;99.90;;;;;;4934685;28;19947;-66
2024/01/26 03:43:26;;;;;;;;;;;9.70;99.90;;;;;;4966346;28;19925;-67
2024/01/26 03:45:52;;;;;;;;;;;9.70;99.90;;;;;;4929816;28;21066;-67
2024/01/26 03:48:17;;;;;;;;;;;9.70;99.90;;;;;;4965169;28;19930;-66
2024/01/26 03:50:43;;;;;;;;;;;9.70;99.90;;;;;;4934394;28;19925;-67
2024/01/26 03:53:09;;;;;;;;;;;9.70;99.90;;;;;;4983515;28;19925;-67
2024/01/26 03:55:36;;;;;;;;;;;9.80;99.90;;;;;;4956166;28;19941;-67
2024/01/26 03:58:02;;;;;;;;;;;9.80;99.90;;;;;;4960995;28;19933;-67
2024/01/26 04:00:28;;;;;;;;;;;9.80;99.90;;;;;;4962643;28;19925;-66
2024/01/26 04:02:54;;;;;;;;;;;9.80;99.90;;;;;;4934742;28;19999;-67
2024/01/26 04:05:19;;;;;;;;;;;9.80;99.90;;;;;;4976883;28;20452;-68
2024/01/26 04:07:45;;;;;;;;;;;9.80;99.90;;;;;;4916997;28;20400;-67
2024/01/26 04:10:11;;;;;;;;;;;9.80;99.90;;;;;;4959260;28;19933;-67
2024/01/26 04:12:37;;;;;;;;;;;9.90;99.90;;;;;;4951462;28;20592;-67
2024/01/26 04:15:03;;;;;;;;;;;9.80;99.90;;;;;;4960361;28;19932;-66
2024/01/26 04:17:29;;;;;;;;;;;9.90;99.90;;;;;;4932635;28;19926;-66
2024/01/26 04:19:55;;;;;;;;;;;9.90;99.90;;;;;;4961335;28;19956;-66
2024/01/26 04:22:21;;;;;;;;;;;9.90;99.90;;;;;;4950755;28;19931;-66
2024/01/26 04:24:47;;;;;;;;;;;9.90;99.90;;;;;;4963279;28;19968;-66
2024/01/26 04:27:13;;;;;;;;;;;10.00;99.90;;;;;;4938220;28;20351;-66
2024/01/26 04:29:38;;;;;;;;;;;9.90;99.90;;;;;;4959773;28;19925;-67
2024/01/26 04:32:05;;;;;;;;;;;10.00;99.90;;;;;;4933241;28;20561;-67
2024/01/26 04:34:30;;;;;;;;;;;10.00;99.90;;;;;;4962927;28;20332;-66
2024/01/26 04:36:57;;;;;;;;;;;10.00;99.90;;;;;;4948198;28;20031;-66
2024/01/26 04:39:22;;;;;;;;;;;10.10;99.90;;;;;;4971032;28;19925;-66
2024/01/26 04:41:48;;;;;;;;;;;10.10;99.90;;;;;;4935733;28;20094;-67
2024/01/26 04:44:14;;;;;;;;;;;10.10;99.90;;;;;;4969169;28;19931;-66
2024/01/26 04:46:40;;;;;;;;;;;10.10;99.90;;;;;;4925435;28;19926;-66
2024/01/26 04:49:07;;;;;;;;;;;10.10;99.90;;;;;;4961462;28;20656;-66
2024/01/26 04:51:33;;;;;;;;;;;10.20;99.90;;;;;;4942081;28;19925;-67
2024/01/26 04:53:58;;;;;;;;;;;10.20;99.90;;;;;;4973669;28;19940;-66
2024/01/26 04:56:24;;;;;;;;;;;10.20;99.90;;;;;;4931496;28;19937;-67
2024/01/26 04:58:50;;;;;;;;;;;10.20;99.90;;;;;;4949880;28;19940;-67
2024/01/26 05:01:16;;;;;;;;;;;10.20;99.90;;;;;;4929953;28;19940;-67
2024/01/26 05:03:42;;;;;;;;;;;10.30;99.90;;;;;;4958319;28;19925;-68
2024/01/26 05:06:08;;;;;;;;;;;10.30;99.90;;;;;;4928567;28;21018;-67
2024/01/26 05:08:34;;;;;;;;;;;10.30;99.90;;;;;;4949798;28;19925;-67
2024/01/26 05:11:00;;;;;;;;;;;10.30;99.90;;;;;;4932210;28;19925;-67
2024/01/26 05:13:26;;;;;;;;;;;10.40;99.90;;;;;;4981418;28;20514;-66
2024/01/26 05:15:51;;;;;;;;;;;10.30;99.90;;;;;;4928988;28;19934;-66
2024/01/26 05:18:17;;;;;;;;;;;10.40;99.90;;;;;;4960680;28;20399;-67
2024/01/26 05:20:43;;;;;;;;;;;10.40;99.90;;;;;;4932690;28;19933;-68
2024/01/26 05:23:09;;;;;;;;;;;10.50;99.90;;;;;;4981264;28;19978;-68
2024/01/26 05:25:35;;;;;;;;;;;10.50;99.90;;;;;;4941225;28;19925;-68
2024/01/26 05:28:01;;;;;;;;;;;10.50;99.90;;;;;;4966354;28;19925;-68
2024/01/26 05:30:27;;;;;;;;;;;10.50;99.90;;;;;;4964207;28;19936;-68
2024/01/26 05:32:53;;;;;;;;;;;10.50;99.90;;;;;;4936895;28;19932;-68
2024/01/26 05:35:19;;;;;;;;;;;10.60;99.90;;;;;;4965739;28;19933;-69
2024/01/26 05:37:45;;;;;;;;;;;10.50;99.90;;;;;;4957706;28;19935;-69
2024/01/26 05:40:11;;;;;;;;;;;10.60;99.90;;;;;;4979399;28;19925;-69
2024/01/26 05:42:37;;;;;;;;;;;10.50;99.90;;;;;;4944425;28;20003;-69
2024/01/26 05:45:04;;;;;;;;;;;10.50;99.90;;;;;;4963303;28;20529;-70
2024/01/26 05:47:30;;;;;;;;;;;10.50;99.90;;;;;;4923277;28;20268;-70
2024/01/26 05:49:56;;;;;;;;;;;10.50;99.90;;;;;;4965577;28;20622;-70
2024/01/26 05:52:22;;;;;;;;;;;10.50;99.90;;;;;;4955212;28;19928;-69
2024/01/26 05:54:47;;;;;;;;;;;10.50;99.90;;;;;;4963915;28;20320;-70
2024/01/26 05:57:15;;;;;;;;;;;10.50;99.90;;;;;;4938239;28;19929;-69
2024/01/26 05:59:41;;;;;;;;;;;10.50;99.90;;;;;;4965243;28;19925;-69
2024/01/26 06:02:07;;;;;;;;;;;10.50;99.90;;;;;;4953182;28;20693;-70
2024/01/26 06:04:33;;;;;;;;;;;10.50;99.90;;;;;;4968107;28;19957;-70
2024/01/26 06:06:59;;;;;;;;;;;10.50;99.90;;;;;;4941414;28;19929;-71
2024/01/26 06:09:25;;;;;;;;;;;10.50;99.90;;;;;;4964766;28;19945;-70
2024/01/26 06:11:51;;;;;;;;;;;10.50;99.90;;;;;;4928058;28;19926;-72
2024/01/26 06:14:17;;;;;;;;;;;10.60;99.90;;;;;;4966114;28;20512;-70
2024/01/26 06:16:46;;;;;;;;;;;10.60;99.90;;;;;;4937332;28;19929;-70
2024/01/26 06:19:12;;;;;;;;;;;10.60;99.90;;;;;;4964858;28;19925;-71
2024/01/26 06:21:38;;;;;;;;;;;10.50;99.90;;;;;;4939565;28;19929;-70
2024/01/26 06:24:04;;;;;;;;;;;10.60;99.90;;;;;;4974000;28;19932;-70
2024/01/26 06:26:30;;;;;;;;;;;10.60;99.90;;;;;;4945812;28;19947;-71
2024/01/26 06:28:56;;;;;;;;;;;10.60;99.90;;;;;;4965850;28;20473;-71
2024/01/26 06:31:25;;;;;;;;;;;10.60;99.90;;;;;;4936077;28;20397;-71
2024/01/26 06:33:51;;;;;;;;;;;10.60;99.90;;;;;;4963801;28;19925;-72
2024/01/26 06:36:17;;;;;;;;;;;10.60;99.90;;;;;;4942477;28;19936;-73
2024/01/26 06:38:43;;;;;;;;;;;10.70;99.90;;;;;;4974955;28;20827;-74
2024/01/26 06:41:09;;;;;;;;;;;10.60;99.90;;;;;;4941428;28;19932;-76
2024/01/26 06:43:35;;;;;;;;;;;10.70;99.90;;;;;;4978893;28;21210;-74
2024/01/26 06:46:01;;;;;;;;;;;10.70;99.90;;;;;;4940530;28;20926;-76
2024/01/26 06:48:27;;;;;;;;;;;10.70;99.90;;;;;;4982095;28;20007;-75
2024/01/26 06:50:53;;;;;;;;;;;10.70;99.90;;;;;;4933273;28;19953;-75
2024/01/26 06:53:19;;;;;;;;;;;10.60;99.90;;;;;;4951702;28;19925;-74
2024/01/26 06:55:45;;;;;;;;;;;10.60;99.90;;;;;;4933904;28;20737;-75
2024/01/26 06:58:11;;;;;;;;;;;10.50;99.90;;;;;;4969621;28;19925;-74
2024/01/26 07:00:37;;;;;;;;;;;10.60;99.90;;;;;;4933965;28;20434;-75
2024/01/26 07:03:03;;;;;;;;;;;10.50;99.90;;;;;;4969871;28;20072;-74
2024/01/26 07:05:29;;;;;;;;;;;10.60;99.90;;;;;;4964242;28;19925;-74
2024/01/26 07:07:56;;;;;;;;;;;10.60;99.90;;;;;;4908475;28;19935;-75
2024/01/26 07:10:23;;;;;;;;;;;10.60;99.90;;;;;;4964778;28;19925;-76
2024/01/26 07:12:48;;;;;;;;;;;10.50;99.90;;;;;;4922389;28;20767;-75
2024/01/26 07:15:14;;;;;;;;;;;10.50;99.90;;;;;;4966743;28;19925;-76
2024/01/26 07:17:40;;;;;;;;;;;10.60;99.90;;;;;;4943839;28;19929;-76
2024/01/26 07:20:07;;;;;;;;;;;10.60;99.90;;;;;;4965241;28;19932;-76
2024/01/26 07:22:32;;;;;;;;;;;10.60;99.90;;;;;;4920484;28;19929;-76
2024/01/26 07:24:59;;;;;;;;;;;10.60;99.90;;;;;;4964592;28;19972;-76
2024/01/26 07:27:25;;;;;;;;;;;10.60;99.90;;;;;;4958378;28;19924;-75
2024/01/26 07:29:51;;;;;;;;;;;10.60;99.90;;;;;;4964999;28;20546;-75
2024/01/26 07:32:17;;;;;;;;;;;10.50;99.90;;;;;;4911357;28;19952;-75
2024/01/26 07:34:43;;;;;;;;;;;10.70;99.90;;;;;;4965538;28;19925;-75
2024/01/26 07:37:09;;;;;;;;;;;10.60;99.90;;;;;;4945190;28;19929;-74
2024/01/26 07:39:35;;;;;;;;;;;10.70;99.90;;;;;;4965506;28;19932;-74
2024/01/26 07:42:00;;;;;;;;;;;10.60;99.90;;;;;;4946517;28;19924;-76
2024/01/26 07:44:26;;;;;;;;;;;10.60;99.90;;;;;;4973904;28;19925;-76
2024/01/26 07:46:52;;;;;;;;;;;10.60;99.90;;;;;;4942638;28;19929;-76
2024/01/26 07:49:18;;;;;;;;;;;10.70;99.90;;;;;;4968457;28;20028;-76
2024/01/26 07:51:44;;;;;;;;;;;10.60;99.90;;;;;;4952161;28;19925;-75
2024/01/26 07:54:10;;;;;;;;;;;10.70;99.90;;;;;;4980154;28;19944;-74
2024/01/26 07:56:36;;;;;;;;;;;10.70;99.90;;;;;;4943745;28;20698;-75
2024/01/26 07:59:02;;;;;;;;;;;10.70;99.90;;;;;;4967240;28;19933;-76
2024/01/26 08:01:28;;;;;;;;;;;10.70;99.90;;;;;;4937191;28;19925;-74
2024/01/26 08:03:54;;;;;;;;;;;10.60;99.90;;;;;;4964679;28;19931;-75
2024/01/26 08:06:20;;;;;;;;;;;10.60;99.90;;;;;;4951150;28;19929;-75
2024/01/26 08:08:46;;;;;;;;;;;10.70;99.90;;;;;;4983786;28;19937;-75
2024/01/26 08:11:12;;;;;;;;;;;10.60;99.90;;;;;;4947960;28;20247;-72
2024/01/26 08:13:38;;;;;;;;;;;10.70;99.90;;;;;;4973977;28;19936;-76
2024/01/26 08:16:04;;;;;;;;;;;10.70;99.90;;;;;;4940882;28;19940;-73
2024/01/26 08:18:30;;;;;;;;;;;10.70;99.90;;;;;;4970422;28;20648;-75
2024/01/26 08:20:56;;;;;;;;;;;10.60;99.90;;;;;;4936489;28;20602;-73
2024/01/26 08:23:22;;;;;;;;;;;10.70;99.90;;;;;;4959460;28;20439;-76
2024/01/26 08:25:48;;;;;;;;;;;10.60;99.90;;;;;;4939483;28;19925;-75
2024/01/26 08:28:14;;;;;;;;;;;10.60;99.90;;;;;;4971915;28;20415;-74
2024/01/26 08:30:42;;;;;;;;;;;10.60;99.90;;;;;;4954078;28;19925;-75
2024/01/26 08:33:08;;;;;;;;;;;10.60;99.90;;;;;;4953416;28;19925;-74
2024/01/26 08:35:34;;;;;;;;;;;10.60;99.90;;;;;;4954327;28;19926;-75
2024/01/26 08:37:59;;;;;;;;;;;10.70;99.90;;;;;;4951390;28;20038;-75
2024/01/26 08:40:26;;;;;;;;;;;10.70;99.90;;;;;;4971013;28;19941;-74
2024/01/26 08:42:51;;;;;;;;;;;10.80;99.90;;;;;;4914467;28;19929;-76
2024/01/26 08:45:17;;;;;;;;;;;10.70;99.90;;;;;;4970149;28;20035;-75
2024/01/26 08:47:43;;;;;;;;;;;10.70;99.90;;;;;;4936865;28;19932;-75
2024/01/26 08:50:09;;;;;;;;;;;10.80;99.90;;;;;;4975109;28;19969;-74
2024/01/26 08:52:35;;;;;;;;;;;10.70;99.90;;;;;;4924810;28;19929;-75
2024/01/26 08:55:01;;;;;;;;;;;10.70;99.90;;;;;;4988204;28;20540;-75
2024/01/26 08:57:27;;;;;;;;;;;10.80;99.90;;;;;;4960199;28;20402;-75
2024/01/26 08:59:53;;;;;;;;;;;10.80;99.90;;;;;;4966688;28;19937;-71
2024/01/26 09:02:19;;;;;;;;;;;10.80;99.90;;;;;;4918279;28;19932;-73
2024/01/26 09:04:45;;;;;;;;;;;10.80;99.90;;;;;;4964528;28;19933;-74
2024/01/26 09:07:11;;;;;;;;;;;10.70;99.90;;;;;;4926291;28;19925;-76
2024/01/26 09:09:37;;;;;;;;;;;10.60;99.90;;;;;;4957730;28;20026;-72
2024/01/26 09:12:04;;;;;;;;;;;10.70;99.90;;;;;;4930125;28;19925;-74
2024/01/26 09:14:29;;;;;;;;;;;10.70;99.90;;;;;;4973207;28;19929;-73
2024/01/26 09:16:55;;;;;;;;;;;10.70;99.90;;;;;;4932995;28;19929;-73
2024/01/26 09:19:21;;;;;;;;;;;10.60;99.90;;;;;;4959808;28;19933;-76
2024/01/26 09:21:47;;;;;;;;;;;10.70;99.90;;;;;;4945481;28;19925;-74
2024/01/26 09:24:13;;;;;;;;;;;10.50;99.90;;;;;;4948283;28;21220;-72
2024/01/26 09:26:41;;;;;;;;;;;10.20;99.90;;;;;;4956237;28;19924;-75
2024/01/26 09:29:07;;;;;;;;;;;9.90;99.90;;;;;;4954246;28;19929;-75
2024/01/26 09:31:33;;;;;;;;;;;9.40;99.90;;;;;;4942998;28;19925;-74
2024/01/26 09:33:59;;;;;;;;;;;9.10;99.90;;;;;;4968043;28;20557;-75
2024/01/26 09:36:25;;;;;;;;;;;8.90;99.90;;;;;;4947340;28;19929;-75
2024/01/26 09:38:51;;;;;;;;;;;8.80;99.90;;;;;;4963118;28;20628;-74
2024/01/26 09:41:17;;;;;;;;;;;8.80;99.90;;;;;;4957605;28;20450;-75
2024/01/26 09:43:43;;;;;;;;;;;8.70;99.90;;;;;;4985200;28;19925;-75
2024/01/26 09:46:09;;;;;;;;;;;8.70;99.90;;;;;;4943252;28;19929;-73
2024/01/26 09:48:36;;;;;;;;;;;8.80;99.90;;;;;;4972509;28;19926;-75
2024/01/26 09:51:02;;;;;;;;;;;8.70;99.90;;;;;;4945646;28;19929;-73
2024/01/26 09:53:29;;;;;;;;;;;8.70;99.90;;;;;;4975386;28;19925;-73
2024/01/26 09:55:55;;;;;;;;;;;8.70;99.90;;;;;;4942275;28;20518;-75
2024/01/26 09:58:21;;;;;;;;;;;8.70;99.90;;;;;;4944808;28;20024;-75
2024/01/26 10:00:47;;;;;;;;;;;8.60;99.90;;;;;;4944075;28;20414;-73
2024/01/26 10:03:13;;;;;;;;;;;8.50;99.90;;;;;;4994463;28;19925;-74
2024/01/26 10:05:39;;;;;;;;;;;8.50;99.90;;;;;;4937907;28;20674;-74
2024/01/26 10:08:09;;;;;;;;;;;8.50;99.90;;;;;;4986691;28;19975;-73
2024/01/26 10:10:35;;;;;;;;;;;8.40;99.90;;;;;;4939668;28;19925;-72
2024/01/26 10:13:03;;;;;;;;;;;8.40;99.90;;;;;;4944266;28;19925;-72
2024/01/26 10:15:29;;;;;;;;;;;8.40;99.90;;;;;;4982297;28;19937;-74
2024/01/26 10:17:58;;;;;;;;;;;8.40;99.90;;;;;;4934507;28;19956;-73
2024/01/26 10:20:24;;;;;;;;;;;8.40;99.90;;;;;;4988299;28;19925;-73
2024/01/26 10:22:50;;;;;;;;;;;8.40;99.90;;;;;;4957367;28;19925;-73
2024/01/26 10:25:16;;;;;;;;;;;8.40;99.90;;;;;;4974414;28;19925;-73
2024/01/26 10:27:42;;;;;;;;;;;8.40;99.90;;;;;;4972450;28;20005;-74
2024/01/26 10:30:11;;;;;;;;;;;8.40;99.90;;;;;;4981705;28;19925;-74
2024/01/26 10:32:40;;;;;;;;;;;8.40;99.90;;;;;;4930830;28;20042;-71
2024/01/26 10:35:07;;;;;;;;;;;8.40;99.90;;;;;;4978734;28;19932;-73
2024/01/26 10:37:36;;;;;;;;;;;8.40;99.90;;;;;;4962191;28;20562;-73
2024/01/26 10:40:04;;;;;;;;;;;8.30;99.90;;;;;;4986411;28;19925;-70
2024/01/26 10:42:30;;;;;;;;;;;8.30;99.90;;;;;;4941024;28;19936;-71
2024/01/26 10:44:57;;;;;;;;;;;8.30;99.90;;;;;;4967687;28;19925;-68
2024/01/26 10:47:24;;;;;;;;;;;8.30;99.90;;;;;;4945186;28;19929;-73
2024/01/26 10:49:53;;;;;;;;;;;8.20;99.90;;;;;;4970751;28;20434;-72
2024/01/26 10:52:19;;;;;;;;;;;8.20;99.90;;;;;;4936455;28;19937;-71
2024/01/26 10:54:46;;;;;;;;;;;8.30;99.90;;;;;;4963579;28;20025;-72
2024/01/26 10:57:13;;;;;;;;;;;8.30;99.90;;;;;;4929844;28;21024;-71
2024/01/26 10:59:41;;;;;;;;;;;8.40;99.90;;;;;;4965413;28;19933;-71
2024/01/26 11:02:12;;;;;;;;;;;8.40;99.90;;;;;;4942730;28;20535;-71
2024/01/26 11:04:39;;;;;;;;;;;8.40;99.90;;;;;;4969174;28;19929;-70
2024/01/26 11:07:06;;;;;;;;;;;8.30;99.90;;;;;;4952990;28;20637;-71
2024/01/26 11:09:36;;;;;;;;;;;8.30;99.90;;;;;;4969232;28;19932;-70
2024/01/26 11:12:03;;;;;;;;;;;8.30;99.90;;;;;;4955360;28;19925;-71
2024/01/26 11:14:32;;;;;;;;;;;8.30;99.90;;;;;;4970380;28;19925;-71
2024/01/26 11:17:08;;;;;;;;;;;8.30;99.90;;;;;;4923774;28;19934;-71
2024/01/26 11:19:33;;;;;;;;;;;8.30;99.90;;;;;;4983738;28;19925;-71
2024/01/26 11:22:02;;;;;;;;;;;8.30;99.90;;;;;;4949457;28;19929;-70
2024/01/26 11:24:30;;;;;;;;;;;8.30;99.90;;;;;;4970593;28;19929;-70
2024/01/26 11:27:01;;;;;;;;;;;8.30;99.90;;;;;;4933007;28;20420;-70
2024/01/26 11:29:34;;;;;;;;;;;8.40;99.90;;;;;;4938497;28;20729;-70
2024/01/26 11:32:00;;;;;;;;;;;8.40;99.90;;;;;;4946083;28;19935;-70
2024/01/26 11:34:26;;;;;;;;;;;8.50;99.90;;;;;;4965124;28;19926;-70
2024/01/26 11:37:05;;;;;;;;;;;8.60;99.90;;;;;;4932875;28;19937;-70
2024/01/26 11:39:32;;;;;;;;;;;8.60;99.90;;;;;;4967862;28;19926;-69
2024/01/26 11:41:58;;;;;;;;;;;8.60;99.90;;;;;;4940927;28;19929;-71
2024/01/26 11:44:29;;;;;;;;;;;8.50;99.90;;;;;;4959986;28;20411;-70
2024/01/26 11:46:56;;;;;;;;;;;8.50;99.90;;;;;;4949538;28;19936;-70
2024/01/26 11:49:24;;;;;;;;;;;8.40;99.90;;;;;;4970213;28;20254;-69
2024/01/26 11:51:50;;;;;;;;;;;8.40;99.90;;;;;;4923439;28;19925;-70
2024/01/26 11:54:16;;;;;;;;;;;8.40;99.90;;;;;;4958137;28;19933;-71
2024/01/26 11:56:42;;;;;;;;;;;8.30;99.90;;;;;;4936712;28;20023;-69
2024/01/26 11:59:08;;;;;;;;;;;8.30;99.90;;;;;;4962769;28;19937;-70
2024/01/26 12:01:34;;;;;;;;;;;8.30;99.90;;;;;;4938445;28;20556;-70
2024/01/26 12:04:00;;;;;;;;;;;8.30;99.90;;;;;;4965432;28;19937;-69
2024/01/26 12:06:26;;;;;;;;;;;8.30;99.90;;;;;;4937796;28;19936;-69
2024/01/26 12:08:52;;;;;;;;;;;8.30;99.90;;;;;;4965004;28;19925;-69
2024/01/26 12:11:18;;;;;;;;;;;8.30;99.90;;;;;;4932324;28;20589;-70
2024/01/26 12:13:45;;;;;;;;;;;8.30;99.90;;;;;;4981825;28;20737;-69
2024/01/26 12:16:10;;;;;;;;;;;8.30;99.90;;;;;;4936338;28;19925;-70
2024/01/26 12:18:36;;;;;;;;;;;8.30;99.90;;;;;;4935840;28;19937;-68
2024/01/26 12:21:03;;;;;;;;;;;8.20;99.90;;;;;;4933912;28;19925;-69
2024/01/26 12:23:29;;;;;;;;;;;8.00;99.90;;;;;;4939322;28;21160;-69
2024/01/26 12:25:55;;;;;;;;;;;7.90;99.90;;;;;;4922958;28;19930;-68
2024/01/26 12:28:27;;;;;;;;;;;7.90;99.90;;;;;;4985774;28;20130;-70
2024/01/26 12:30:53;;;;;;;;;;;7.90;99.90;;;;;;4938047;28;20396;-68
2024/01/26 12:33:20;;;;;;;;;;;7.90;99.90;;;;;;4965514;28;19948;-69
2024/01/26 12:35:46;;;;;;;;;;;7.90;99.90;;;;;;4935675;28;19926;-69
2024/01/26 12:38:13;;;;;;;;;;;7.90;99.90;;;;;;4953364;28;19933;-70
2024/01/26 12:40:39;;;;;;;;;;;7.90;99.90;;;;;;4932521;28;20674;-69
2024/01/26 12:43:05;;;;;;;;;;;7.90;99.90;;;;;;4949523;28;20987;-69
2024/01/26 12:45:31;;;;;;;;;;;7.70;99.90;;;;;;4961055;28;19925;-70
2024/01/26 12:47:57;;;;;;;;;;;7.40;99.90;;;;;;4899404;28;20457;-70
2024/01/26 12:50:23;;;;;;;;;;;7.20;99.90;;;;;;4967537;28;20709;-70
2024/01/26 12:52:49;;;;;;;;;;;7.20;99.90;;;;;;4941682;28;19925;-70
2024/01/26 12:55:15;;;;;;;;;;;7.30;99.90;;;;;;4965350;28;19948;-70
2024/01/26 12:57:41;;;;;;;;;;;7.30;99.90;;;;;;4951976;28;19928;-70
2024/01/26 13:00:07;;;;;;;;;;;7.30;99.90;;;;;;4964372;28;20978;-70
2024/01/26 13:02:34;;;;;;;;;;;7.30;99.90;;;;;;4914256;28;19936;-70
2024/01/26 13:05:00;;;;;;;;;;;7.40;99.90;;;;;;4966837;28;20000;-68
2024/01/26 13:07:26;;;;;;;;;;;7.90;99.90;;;;;;4956702;28;19925;-69
2024/01/26 13:09:52;;;;;;;;;;;7.80;99.90;;;;;;4961294;28;19929;-69
2024/01/26 13:12:18;;;;;;;;;;;8.20;99.90;;;;;;4953616;28;20257;-68
2024/01/26 13:14:46;;;;;;;;;;;8.20;99.90;;;;;;4968395;28;19969;-68
2024/01/26 13:17:13;;;;;;;;;;;8.00;99.90;;;;;;4940630;28;21601;-69
2024/01/26 13:19:39;;;;;;;;;;;7.90;99.90;;;;;;4972622;28;19925;-69
2024/01/26 13:22:05;;;;;;;;;;;7.90;99.90;;;;;;4946771;28;21322;-70
2024/01/26 13:24:31;;;;;;;;;;;7.90;99.90;;;;;;4967268;28;19937;-71
2024/01/26 13:26:57;;;;;;;;;;;8.20;99.90;;;;;;4949359;28;20173;-70
2024/01/26 13:29:23;;;;;;;;;;;8.30;99.90;;;;;;4969689;28;19999;-70
2024/01/26 13:31:49;;;;;;;;;;;8.60;99.90;;;;;;4934115;28;19960;-70
2024/01/26 13:34:16;;;;;;;;;;;8.60;99.90;;;;;;4962110;28;19933;-69
2024/01/26 13:36:44;;;;;;;;;;;8.40;99.90;;;;;;4913050;28;20407;-70
2024/01/26 13:39:10;;;;;;;;;;;9.20;99.90;;;;;;4943798;28;19925;-70
2024/01/26 13:41:37;;;;;;;;;;;8.60;99.90;;;;;;4939526;28;20532;-71
2024/01/26 13:44:04;;;;;;;;;;;8.30;99.90;;;;;;4978098;28;19929;-69
2024/01/26 13:46:30;;;;;;;;;;;8.20;99.90;;;;;;4916960;28;19925;-69
2024/01/26 13:48:56;;;;;;;;;;;9.20;99.90;;;;;;4962169;28;19941;-69
2024/01/26 13:51:22;;;;;;;;;;;9.00;99.90;;;;;;4940223;28;20436;-69
2024/01/26 13:53:48;;;;;;;;;;;9.00;99.90;;;;;;4968838;28;19942;-69
2024/01/26 13:56:15;;;;;;;;;;;9.40;99.90;;;;;;4949046;28;19920;-70
2024/01/26 13:58:41;;;;;;;;;;;9.70;99.90;;;;;;4979238;28;19936;-70
2024/01/26 14:01:07;;;;;;;;;;;9.80;99.90;;;;;;4945890;28;20967;-70
2024/01/26 14:03:33;;;;;;;;;;;9.70;99.90;;;;;;4982405;28;19926;-69
2024/01/26 14:05:59;;;;;;;;;;;8.90;99.90;;;;;;4925638;28;19940;-69
2024/01/26 14:08:25;;;;;;;;;;;8.60;99.90;;;;;;4965666;28;19936;-70
2024/01/26 14:10:51;;;;;;;;;;;8.80;99.90;;;;;;4942722;28;19938;-69
2024/01/26 14:13:17;;;;;;;;;;;8.80;99.90;;;;;;4984263;28;20367;-69
2024/01/26 14:15:43;;;;;;;;;;;9.30;99.90;;;;;;4934919;28;19925;-70
2024/01/26 14:18:09;;;;;;;;;;;9.30;99.90;;;;;;4965629;28;20224;-69
2024/01/26 14:20:36;;;;;;;;;;;8.90;99.90;;;;;;4947759;28;20346;-69